Aérodrome :
LOGIN :

S'inscrire | Disclaimer

   EN    FR    IT 

 










Légende :    VFR   VFR Marginal   IFR   IFR Intensif   IFR Très Intensif
Visi : 
Plafond : 
>= 8 km
>= 3000ft
5 à 8 km
1000 à 3000 ft
1500m à 5 km
500 à 1000 ft
800 à 1500m
200 à 500 ft
< 800m
< 200 ft
Symboles :   Orages  Brouillard  Fortes neiges  Fortes précipitations  Vent > 20 kt
SIGMETs :   Divers  Orages  Givrage  Turbulence  Onde Orograph.  Cendres Volcan.







- Altitude de l'aérodrome : 24 ft
- Code IATA : FAO


LPFR - Faro

DERNIER METAR :
  • 242300Z 00000KT 9999 FEW014 16/14 Q1014

METARs EXPIRÉS :
  • 242230Z 00000KT 9999 FEW014 16/15 Q1014
  • 242200Z 24003KT 9999 FEW014 SCT022 16/14 Q1014
  • 242130Z 24002KT 9999 FEW014 SCT022 17/14 Q1014
  • 242100Z VRB01KT 9999 FEW014 SCT022 17/14 Q1014
  • 242030Z 27003KT 9999 FEW014 FEW020CB SCT022 16/14 Q1014

TAF TAF LPFR
Valide du 24 à 18h jusqu'au 25 à 18h UTC


241700Z 2418/2518 24008KT 9999 FEW020
TEMPO 2418/2518 8000 SHRA SCT008 SCT018 FEW025CB
PROB30
TEMPO 2418/2421 VRB15G25KT 3000 TSRAGS SCT020CB
BECMG 2420/2423 VRB03KT
PROB30
TEMPO 2500/2508 BKN005
BECMG 2509/2511 18008KT
BECMG 2514/2517 23012KT
Pas de NOTAMs connus pour ce terrain.
1 SIGMET publié pour la FIR Lisboa (LPPC) :
 
Orages noyés dans la masse
LPPC SIGMET 6 VALID 242139/242300 LPPT
LPPC LISBON FIR EMBD TS FCST N OF N4015 AND E OF W00830 TOP FL340 MOV N 20KT WKN=



MET'MAP, la Météo Aéronautique d'un coup d'oeil ! - Copyright ORBIFLY Décembre 2007 - Disclaimer

ORBIFLY MET'MAP TEAM :

Programmation & Développement : Alexandra Zaïnal
Conception & Développement : Baudouin d'Aumeries
Co-Programmation & Développement : Marc-Olivier Méhu
Soutien technique & logistique : Manuel Goepfert

Contact : metmap@orbifly.com




SOURCES & CREDITS :

   NOAA